• Join FlightAware (Why Join?)
  • Login
  • US Flag 
12:24AM EST


 

Airport Tracker/Info


-or-


 

Live Flight TrackerFlight Track Log ✈ N225BJ ✈ 01-Dec-2013 ✈ KFTY - KLIT

Flight Track Log - Related Links

Times and Time Zones

All times are in EST time to prevent confusion due to time zone crossing. See the N225BJ flight status page for this flight to view local times or setup timezone preferences in your user account.

Time Position Orientation Groundspeed Altitude Reporting Facility
EST Latitude Longitude Course Direction KTS MPH feet Rate Location/Type
02:43PM 33.8167 -84.7000 256° West 243 280 6,000  Level Atlanta TRACON
02:44PM 33.8000 -84.7833 256° West 247 284 8,500 2,340 Climbing Atlanta TRACON
02:45PM 33.7667 -84.8667 244° Southwest 291 335 10,700 2,280 Climbing Atlanta TRACON
02:45PM 33.7411 -84.9256 242° Southwest 292 336 12,700 2,160 Climbing Atlanta Center
02:46PM 33.7172 -85.0153 262° West 292 336 14,700 2,220 Climbing Atlanta Center
02:47PM 33.7375 -85.1131 284° West 292 336 17,200 2,160 Climbing Atlanta Center
02:48PM 33.7533 -85.2031 282° West 292 336 19,100 2,100 Climbing Atlanta Center
02:49PM 33.7692 -85.2958 282° West 292 336 21,500 2,340 Climbing Atlanta Center
02:50PM 33.7825 -85.3983 279° West 292 336 23,800 2,400 Climbing Atlanta Center
02:51PM 33.7961 -85.4861 281° West 283 326 26,400 2,160 Climbing Atlanta Center
02:52PM 33.8119 -85.5714 283° West 268 308 28,200 1,620 Climbing Atlanta Center
02:53PM 33.8253 -85.6567 281° West 268 308 29,700 1,200 Climbing Atlanta Center
02:54PM 33.8389 -85.7419 281° West 263 303 30,600 840 Climbing Atlanta Center
02:55PM 33.8483 -85.8172 279° West 263 303 31,400 1,200 Climbing Atlanta Center
02:56PM 33.8594 -85.9025 279° West 258 297 33,000 1,560 Climbing Atlanta Center
02:57PM 33.8750 -85.9828 283° West 258 297 34,600 1,140 Climbing Atlanta Center
02:58PM 33.8864 -86.0583 280° West 247 284 35,300 660 Climbing Atlanta Center
02:59PM 33.8975 -86.1361 280° West 242 278 36,000 300 Climbing Atlanta Center
03:00PM 33.9128 -86.2214 282° West 242 278 36,000  Level Atlanta Center
03:01PM 33.9236 -86.3094 278° West 254 292 36,000  Level Atlanta Center
03:02PM 33.9364 -86.4025 279° West 272 313 36,000  Level Atlanta Center
03:03PM 33.9533 -86.4981 282° West 283 326 36,000  Level Atlanta Center
03:04PM 33.9681 -86.5936 281° West 289 333 36,000  Level Atlanta Center
03:05PM 33.9828 -86.6917 280° West 295 339 36,000  Level Atlanta Center
03:06PM 33.9953 -86.7900 279° West 295 339 36,000  Level Atlanta Center
03:09PM 34.0311 -87.0250 280° West 296 341 36,000  Level Memphis Center
03:10PM 34.0456 -87.1217 280° West 294 338 36,000  Level Memphis Center
03:11PM 34.0594 -87.2175 280° West 292 336 36,000  Level Memphis Center
03:12PM 34.0742 -87.3192 280° West 291 335 36,000  Level Memphis Center
03:13PM 34.0886 -87.4164 280° West 292 336 36,000  Level Memphis Center
03:14PM 34.1036 -87.5300 279° West 292 336 36,000  Level Memphis Center
03:15PM 34.1189 -87.6281 281° West 294 338 36,000  Level Memphis Center
03:16PM 34.1317 -87.7258 279° West 293 337 36,000  Level Memphis Center
03:17PM 34.1461 -87.8228 280° West 292 336 36,000  Level Memphis Center
03:18PM 34.1594 -87.9167 280° West 292 336 36,000  Level Memphis Center
03:19PM 34.1725 -88.0131 279° West 290 334 36,000  Level Memphis Center
03:20PM 34.1883 -88.1281 279° West 290 334 36,000  Level Memphis Center
03:21PM 34.2014 -88.2242 279° West 290 334 36,000  Level Memphis Center
03:22PM 34.2158 -88.3200 280° West 290 334 36,000  Level Memphis Center
03:23PM 34.2267 -88.4164 278° West 290 334 36,000  Level Memphis Center
03:24PM 34.2414 -88.5122 281° West 290 334 36,000  Level Memphis Center
03:25PM 34.2539 -88.6075 279° West 288 331 36,000  Level Memphis Center
03:26PM 34.2686 -88.7214 279° West 287 330 36,000  Level Memphis Center
03:27PM 34.2828 -88.8161 280° West 287 330 36,000  Level Memphis Center
03:28PM 34.2928 -88.9019 278° West 286 329 36,000  Level Memphis Center
03:29PM 34.3072 -89.0139 279° West 286 329 36,000  Level Memphis Center
03:31PM 34.3197 -89.1089 279° West 285 328 36,000  Level Memphis Center
03:32PM 34.3325 -89.2042 279° West 285 328 36,000  Level Memphis Center
03:33PM 34.3450 -89.2994 279° West 284 327 36,000  Level Memphis Center
03:34PM 34.3564 -89.3947 278° West 283 326 36,000  Level Memphis Center
03:35PM 34.3683 -89.4900 279° West 284 327 36,000  Level Memphis Center
03:36PM 34.3806 -89.5844 279° West 282 325 36,000  Level Memphis Center
03:37PM 34.3925 -89.6806 279° West 283 326 36,000  Level Memphis Center
03:38PM 34.4064 -89.7914 279° West 283 326 36,000  Level Memphis Center
03:39PM 34.4178 -89.8867 278° West 282 325 36,000  Level Memphis Center
03:40PM 34.4297 -89.9814 279° West 281 323 36,000  Level Memphis Center
03:41PM 34.4408 -90.0756 278° West 280 322 36,000  Level Memphis Center
03:42PM 34.4528 -90.1703 279° West 280 322 36,000  Level Memphis Center
03:43PM 34.4642 -90.2658 278° West 282 325 36,000  Level Memphis Center
03:44PM 34.4756 -90.3608 278° West 282 325 36,000  Level Memphis Center
03:45PM 34.4944 -90.4531 284° West 281 323 36,000 -1,020 Level Memphis Center
03:46PM 34.5425 -90.5500 301° West 284 327 33,900 -2,280 Descending Memphis Center
03:47PM 34.5653 -90.6356 288° West 284 327 31,300 -2,880 Descending Memphis Center
03:48PM 34.5650 -90.7311 270° West 279 321 28,000 -3,360 Descending Memphis Center
03:49PM 34.5636 -90.8281 269° West 283 326 24,400 -4,020 Descending Memphis Center
03:50PM 34.5758 -90.9322 278° West 304 350 19,700 -4,260 Descending Memphis Center
03:51PM 34.5978 -91.0375 284° West 319 367 15,700 -3,540 Descending Memphis Center
03:52PM 34.6181 -91.1364 284° West 300 345 12,900 -2,760 Descending Memphis Center
03:52PM 34.6192 -91.1378 314° West 308 354 12,900 -2,340 Level Memphis Center
03:53PM 34.6350 -91.2211 283° West 267 307 10,800 -2,160 Descending Memphis Center
03:53PM 34.6381 -91.2269 302° West 279 321 10,700 -2,700 Descending Memphis Center
03:54PM 34.6456 -91.3064 277° West 259 298 8,100 -3,240 Descending Memphis Center
03:54PM 34.6486 -91.3311 279° West 266 306 7,300 -2,160 Descending Memphis Center
03:55PM 34.6539 -91.3842 277° West 263 303 6,200 -1,260 Descending Memphis Center
03:55PM 34.6600 -91.4169 283° West 259 298 6,000 -960 Descending Memphis Center
03:56PM 34.6733 -91.4839 284° West 214 246 5,000 -1,020 Descending Memphis Center
03:56PM 34.6753 -91.4878 301° West 223 257 5,000 60 Level Memphis Center
03:57PM 34.6872 -91.5511 283° West 209 241 5,100  Climbing Memphis Center
03:58PM 34.7006 -91.6161 284° West 187 215 5,000 -120 Descending Memphis Center
03:58PM 34.7019 -91.6175 321° Northwest 196 226 5,000  Level Memphis Center
03:59PM 34.7144 -91.6833 283° West 179 206 5,000  Level Memphis Center
03:59PM 34.7136 -91.6772 99° East 187 215 5,000 -240 Level Memphis Center
04:00PM 34.7231 -91.7333 282° West 156 180 4,800 -240 Descending Memphis Center
04:01PM 34.7244 -91.7408 283° West 172 198 4,800 60 Level Memphis Center
04:01PM 34.7336 -91.7783 287° West 141 162 4,900 60 Climbing Memphis Center
04:02PM 34.7358 -91.7864 289° West 154 177 4,900 -240 Level Memphis Center
04:02PM 34.7422 -91.8308 280° West 162 186 4,700 -540 Descending Memphis Center
04:03PM 34.7511 -91.8911 280° West 180 207 4,000 -660 Descending Memphis Center
04:04PM 34.7553 -91.9006 298° West 169 194 3,900 -540 Descending Memphis Center
04:04PM 34.7642 -91.9458 283° West 171 197 3,500 -600 Descending Memphis Center
04:05PM 34.7667 -91.9564 286° West 171 197 3,300 -1,020 Descending Memphis Center
04:05PM 34.7747 -91.9958 284° West 163 188 2,600 -1,020 Descending Memphis Center
04:06PM 34.7769 -92.0092 281° West 168 193 2,300 -720 Descending Memphis Center
04:06PM 34.7811 -92.0411 279° West 153 176 2,000 -600 Descending Memphis Center
04:07PM 34.7861 -92.0703 282° West 158 182 1,700 -420 Descending Memphis Center
04:07PM 34.7856 -92.0964 269° West 154 177 1,600 -300 Descending Memphis Center
04:08PM 34.7853 -92.1217 269° West 156 180 1,400 -420 Descending Memphis Center
04:08PM 34.7772 -92.1425 245° Southwest 147 169 1,200 -420 Descending Memphis Center
04:09PM 34.7653 -92.1689 241° Southwest 154 177 1,000 -540 Descending Memphis Center
04:09PM 34.7536 -92.1794 217° Southwest 127 146 700 -720 Descending Memphis Center
04:11PM 34.7167 -92.2167 270° West  Level FlightAware Approximate